Terminal Aerodrome Forecast
Issued by NWS Binghamton, NY

Current Version | Previous Version | Text Only | Print | Product List | Glossary On
Versions: 1 2 3 4 5 6 7 8 9 10 11 12 13 14 15 16 17 18 19
000
FTUS41 KBGM 302320
TAFBGM
TAF
KBGM 302320Z 0100/0124 08009KT P6SM OVC015
      TEMPO 0100/0104 3SM -SHRA BR OVC007
     FM010400 08007KT P6SM OVC007
     FM011500 11008KT P6SM OVC008 PROB30 0116/0122 2SM -SHRA OVC003=

USA.gov is the U.S. government's official web portal to all federal, state and local government web resources and services.